EDT,Max TemperatureF,Mean TemperatureF,Min TemperatureF,Max Dew PointF,MeanDew PointF,Min DewpointF,Max Humidity, Mean Humidity, Min Humidity, Max Sea Level PressureIn, Mean Sea Level PressureIn, Min Sea Level PressureIn, Max VisibilityMiles, Mean VisibilityMiles, Min VisibilityMiles, Max Wind SpeedMPH, Mean Wind SpeedMPH, Max Gust SpeedMPH,PrecipitationIn, CloudCover, Events, WindDirDegrees
2012-9-1,69,56,44,52,46,43,100,64,40,30.13,30.06,29.87,,,,6,2,,0.02,,,-1
2012-9-2,72,54,37,48,43,35,100,58,29,30.15,30.13,30.08,,,,7,1,14,0.02,,,310
2012-9-3,77,56,35,53,47,42,89,54,30,30.24,30.15,30.06,,,,8,1,,0.01,,,170
2012-9-4,77,64,52,61,58,53,100,74,54,30.06,29.99,29.89,,,,12,3,17,0.01,,,170
2012-9-5,73,65,55,61,59,56,84,70,57,29.89,29.83,29.80,,,,6,2,,0.16,,,-1
2012-9-6,73,60,48,57,55,54,91,70,54,29.95,29.87,29.82,,,,5,1,,0.02,,,-1
2012-9-7,76,65,54,63,55,50,100,63,40,29.89,29.85,29.81,,,,6,2,20,0.02,,,-1
2012-9-8,75,62,51,64,60,53,86,75,65,29.87,29.70,29.50,,,,17,6,36,0.64,,,151
2012-9-9,63,53,45,57,49,46,88,74,58,29.86,29.74,29.53,,,,14,7,22,0.02,,,206
2012-9-10,61,50,39,48,44,40,89,70,54,30.00,29.92,29.85,,,,7,2,16,0.01,,,-1
2012-9-11,65,51,37,45,41,38,90,60,37,30.19,30.11,30.00,,,,7,2,17,0.02,,,-1
2012-9-12,77,58,39,54,52,50,85,61,40,30.29,30.23,30.19,,,,13,2,21,0.02,,,195
2012-9-13,81,66,52,56,52,46,100,65,30,30.26,30.21,30.15,,,,10,3,15,0.01,,,210
2012-9-14,80,63,47,61,58,55,88,63,44,30.21,30.12,29.96,,,,12,3,18,0.00,,,174
2012-9-15,65,54,43,65,48,37,100,75,54,29.94,29.91,29.86,,,,14,8,24,0.01,,,197
2012-9-16,59,48,37,39,36,31,89,66,35,29.96,29.92,29.89,,,,13,5,26,0.01,,,233
2012-9-17,70,53,38,53,44,37,97,69,41,30.05,29.99,29.96,,,,10,3,20,0.01,,,200
2012-9-18,68,54,42,55,53,50,97,72,56,30.00,29.88,29.60,,,,16,6,32,0.21,,,144
2012-9-19,65,50,36,50,41,34,86,69,49,30.23,29.87,29.54,,,,15,9,31,0.84,,,213
2012-9-20,60,45,31,42,35,30,100,61,34,30.37,30.26,30.18,,,,7,1,13,0.14,,,-1
2012-9-21,60,45,31,47,44,40,97,69,53,30.22,30.15,30.07,,,,12,3,18,0.47,,,143
2012-9-22,67,52,39,65,59,53,99,85,78,30.08,29.92,29.78,,,,8,2,18,0.01,,,105
2012-9-23,60,49,39,50,40,35,88,64,45,30.01,29.85,29.75,,,,15,5,26,0.23,,,220
2012-9-24,58,44,31,42,38,34,100,64,42,30.13,30.05,30.00,,,,12,2,21,0.06,,,200
2012-9-25,64,47,31,48,44,39,86,66,49,30.03,29.99,29.96,,,,15,6,25,0.12,,,184
2012-9-26,60,52,45,53,48,45,100,82,73,30.03,29.96,29.88,,,,12,6,18,0.24,,,169
2012-9-27,57,45,32,45,37,33,100,64,43,30.27,30.14,30.00,,,,6,2,15,0.04,,,-1
2012-9-28,58,48,39,44,39,35,89,63,47,30.32,30.23,30.13,,,,13,2,18,0.06,,,177
2012-9-29,48,46,43,,,,,,,30.13,30.09,30.03,,,,7,2,14,0.52,,,-1
2012-9-30,58,52,48,,,,,,,30.03,29.84,29.51,,,,9,5,21,1.26,,,40